createdAt,value
2019-04-20T00:01:36.036Z,13.63
2019-04-20T00:04:03.542Z,13.30
2019-04-20T00:06:39.848Z,10.00
2019-04-20T00:09:07.324Z,22.30
2019-04-20T00:11:41.272Z,13.20
2019-04-20T00:14:05.592Z,15.60
2019-04-20T00:16:27.244Z,10.80
2019-04-20T00:18:58.550Z,10.80
2019-04-20T00:21:29.124Z,16.80
2019-04-20T00:24:07.114Z,12.47
2019-04-20T00:27:01.380Z,13.20
2019-04-20T00:29:17.530Z,11.60
2019-04-20T00:31:44.326Z,11.50
2019-04-20T00:34:07.981Z,16.27
2019-04-20T00:36:26.281Z,11.20
2019-04-20T00:38:58.277Z,20.93
2019-04-20T00:41:24.119Z,14.10
2019-04-20T00:43:53.269Z,10.57
2019-04-20T00:46:28.075Z,10.70
2019-04-20T00:48:58.040Z,12.93
2019-04-20T00:51:34.856Z,15.87
2019-04-20T00:53:51.668Z,11.20
2019-04-20T00:56:16.183Z,18.27
2019-04-20T00:58:58.150Z,14.00
2019-04-20T01:01:31.011Z,13.53
2019-04-20T01:04:04.576Z,16.17
2019-04-20T01:06:38.307Z,13.73
2019-04-20T01:08:57.500Z,23.77
2019-04-20T01:11:30.894Z,20.00
2019-04-20T01:14:00.582Z,10.50
2019-04-20T01:16:33.588Z,11.57
2019-04-20T01:18:51.789Z,16.40
2019-04-20T01:21:24.725Z,14.80
2019-04-20T01:23:53.071Z,18.80
2019-04-20T01:26:20.598Z,22.67
2019-04-20T01:28:59.177Z,13.73
2019-04-20T01:31:25.188Z,12.90
2019-04-20T01:33:56.605Z,12.33
2019-04-20T01:36:33.408Z,15.60
2019-04-20T01:38:56.462Z,12.30
2019-04-20T01:41:09.668Z,16.80
2019-04-20T01:43:37.835Z,10.77
2019-04-20T01:46:12.718Z,13.13
2019-04-20T01:48:37.151Z,17.87
2019-04-20T01:51:11.873Z,18.60
2019-04-20T01:53:52.421Z,15.07
2019-04-20T01:56:18.119Z,17.00
2019-04-20T01:58:59.109Z,18.00
2019-04-20T02:01:21.119Z,13.33
2019-04-20T02:03:55.793Z,16.10
2019-04-20T02:06:25.106Z,13.30
2019-04-20T02:08:58.347Z,13.77
2019-04-20T02:11:26.066Z,19.37
2019-04-20T02:13:56.200Z,14.53
2019-04-20T02:16:26.419Z,15.60
2019-04-20T02:19:06.699Z,13.67
2019-04-20T02:21:28.690Z,11.20
2019-04-20T02:23:50.005Z,26.57
2019-04-20T02:26:12.581Z,10.97
2019-04-20T02:29:08.027Z,18.73
2019-04-20T02:32:01.457Z,15.80
2019-04-20T02:34:16.501Z,15.40
2019-04-20T02:36:53.311Z,10.07
2019-04-20T02:42:05.399Z,16.60
2019-04-20T02:49:19.827Z,17.93
2019-04-20T02:51:42.139Z,12.73
2019-04-20T02:54:18.916Z,11.83
2019-04-20T02:56:40.516Z,15.63
2019-04-20T02:59:31.632Z,10.47
2019-04-20T03:01:30.718Z,11.40
2019-04-20T03:03:46.890Z,12.87
2019-04-20T03:06:19.580Z,12.73
2019-04-20T03:08:56.360Z,16.70
2019-04-20T03:11:37.151Z,12.50
2019-04-20T03:13:55.667Z,12.17
2019-04-20T03:16:20.455Z,14.73
2019-04-20T03:18:44.380Z,17.90
2019-04-20T03:21:27.310Z,13.30
2019-04-20T03:23:54.491Z,10.67
2019-04-20T03:26:21.376Z,14.03
2019-04-20T03:29:35.964Z,12.83
2019-04-20T03:37:13.391Z,17.00
2019-04-20T03:39:32.426Z,13.67
2019-04-20T03:41:50.293Z,12.43
2019-04-20T03:44:18.219Z,14.87
2019-04-20T03:46:47.716Z,11.07
2019-04-20T03:49:42.475Z,10.67
2019-04-20T03:52:11.824Z,11.93
2019-04-20T03:54:38.618Z,9.90
2019-04-20T03:57:28.547Z,10.83
2019-04-20T03:59:56.435Z,9.60
2019-04-20T04:04:59.063Z,10.90
2019-04-20T04:07:21.941Z,10.70
2019-04-20T04:10:01.184Z,12.47
2019-04-20T04:13:24.825Z,15.27
2019-04-20T04:15:59.069Z,10.37
2019-04-20T04:18:28.187Z,13.00
2019-04-20T04:20:55.560Z,14.47
2019-04-20T04:23:33.652Z,10.73
2019-04-20T04:26:05.089Z,9.70
2019-04-20T04:28:31.111Z,11.20
2019-04-20T04:31:03.597Z,10.53
2019-04-20T04:35:59.298Z,12.50
2019-04-20T04:38:36.296Z,10.63
2019-04-20T04:41:08.320Z,12.40
2019-04-20T04:43:25.736Z,11.70
2019-04-20T04:45:36.994Z,11.73
2019-04-20T04:48:07.608Z,13.27
2019-04-20T04:50:44.565Z,11.80
2019-04-20T04:53:08.018Z,13.50
2019-04-20T04:55:41.699Z,8.97
2019-04-20T04:58:00.201Z,16.87
2019-04-20T05:00:32.250Z,12.43
2019-04-20T05:03:01.106Z,16.53
2019-04-20T05:05:49.418Z,10.90
2019-04-20T05:08:10.204Z,14.67
2019-04-20T05:10:28.675Z,10.90
2019-04-20T05:12:56.688Z,15.80
2019-04-20T05:15:40.046Z,9.13
2019-04-20T05:18:16.799Z,14.10
2019-04-20T05:20:47.044Z,14.37
2019-04-20T05:23:13.002Z,10.13
2019-04-20T05:25:52.572Z,9.73
2019-04-20T05:28:16.848Z,10.53
2019-04-20T05:30:35.076Z,11.67
2019-04-20T05:33:05.791Z,11.30
2019-04-20T05:35:52.533Z,8.87
2019-04-20T05:38:25.618Z,9.23
2019-04-20T05:40:48.991Z,18.10
2019-04-20T05:45:18.031Z,14.87
2019-04-20T05:47:50.718Z,12.07
2019-04-20T05:50:18.411Z,10.63
2019-04-20T05:52:50.876Z,8.27
2019-04-20T05:55:18.522Z,10.07
2019-04-20T05:57:46.903Z,9.23
2019-04-20T06:00:13.644Z,9.87
2019-04-20T06:02:36.480Z,9.97
2019-04-20T06:07:37.215Z,7.73
2019-04-20T06:10:14.114Z,9.27
2019-04-20T06:12:35.756Z,7.17
2019-04-20T06:15:38.434Z,9.47
2019-04-20T06:18:13.541Z,8.83
2019-04-20T06:21:02.352Z,7.13
2019-04-20T06:23:19.723Z,8.97
2019-04-20T06:26:07.554Z,10.23
2019-04-20T06:28:17.317Z,14.30
2019-04-20T06:30:43.323Z,9.80
2019-04-20T06:38:43.211Z,14.77
2019-04-20T06:41:13.961Z,7.03
2019-04-20T06:43:25.647Z,9.13
2019-04-20T06:46:01.408Z,12.73
2019-04-20T06:48:30.511Z,8.20
2019-04-20T06:50:44.271Z,8.57
2019-04-20T06:53:32.427Z,11.30
2019-04-20T06:56:05.513Z,8.20
2019-04-20T06:58:39.021Z,5.23
2019-04-20T07:00:58.065Z,10.60
2019-04-20T07:03:40.308Z,12.73
2019-04-20T07:06:00.686Z,8.93
2019-04-20T07:08:40.885Z,68.03
2019-04-20T07:11:11.292Z,278.77
2019-04-20T07:13:11.604Z,443.20
2019-04-20T07:15:46.204Z,150.60
2019-04-20T07:18:26.165Z,33.77
2019-04-20T07:21:07.170Z,8.53
2019-04-20T07:23:29.323Z,8.67
2019-04-20T07:25:58.580Z,27.60
2019-04-20T07:28:27.094Z,64.20
2019-04-20T07:30:50.569Z,68.60
2019-04-20T07:33:23.893Z,30.47
2019-04-20T07:35:46.224Z,17.93
2019-04-20T07:40:44.059Z,9.53
2019-04-20T07:43:09.204Z,8.40
2019-04-20T07:45:36.456Z,9.20
2019-04-20T07:48:15.413Z,6.10
2019-04-20T07:50:31.825Z,8.43
2019-04-20T07:53:07.952Z,6.90
2019-04-20T07:57:57.514Z,5.37
2019-04-20T08:00:41.990Z,6.23
2019-04-20T08:03:13.103Z,9.70
2019-04-20T08:05:47.978Z,8.50
2019-04-20T08:08:23.897Z,9.50
2019-04-20T08:10:47.336Z,5.07
2019-04-20T08:13:30.490Z,6.30
2019-04-20T08:18:21.398Z,7.47
2019-04-20T08:20:47.551Z,4.43
2019-04-20T08:23:17.528Z,6.07
2019-04-20T08:25:38.181Z,7.27
2019-04-20T08:27:56.989Z,7.27
2019-04-20T08:32:48.353Z,5.23
2019-04-20T08:35:28.798Z,7.07
2019-04-20T08:38:02.261Z,6.43
2019-04-20T08:40:24.356Z,9.60
2019-04-20T08:42:57.244Z,6.57
2019-04-20T08:45:16.591Z,7.20
2019-04-20T08:48:09.736Z,3.63
2019-04-20T08:53:06.830Z,6.10
2019-04-20T08:55:09.179Z,4.67
2019-04-20T08:57:20.105Z,8.73
2019-04-20T08:59:50.981Z,3.17
2019-04-20T09:02:18.745Z,6.10
2019-04-20T09:04:56.407Z,4.60
2019-04-20T09:07:21.174Z,7.10
2019-04-20T09:10:11.815Z,3.47
2019-04-20T09:12:24.311Z,7.33
2019-04-20T09:14:41.300Z,3.50
2019-04-20T09:17:22.988Z,3.30
2019-04-20T09:19:54.067Z,6.63
2019-04-20T09:22:28.054Z,4.70
2019-04-20T09:25:07.235Z,9.40
2019-04-20T09:27:22.832Z,4.30
2019-04-20T09:29:59.450Z,3.07
2019-04-20T09:32:28.657Z,2.80
2019-04-20T09:35:00.041Z,1.77
2019-04-20T09:37:35.793Z,6.27
2019-04-20T09:40:35.033Z,9.73
2019-04-20T09:42:50.070Z,7.40
2019-04-20T09:45:33.896Z,5.27
2019-04-20T09:47:54.915Z,6.80
2019-04-20T09:50:38.638Z,3.07
2019-04-20T09:53:05.886Z,3.40
2019-04-20T09:55:31.306Z,8.03
2019-04-20T09:58:02.697Z,6.80
2019-04-20T10:00:35.901Z,3.43
2019-04-20T10:02:44.655Z,3.53
2019-04-20T10:05:13.594Z,4.27
2019-04-20T10:07:42.589Z,4.37
2019-04-20T10:10:21.531Z,3.43
2019-04-20T10:12:39.735Z,4.03
2019-04-20T10:15:14.033Z,3.83
2019-04-20T10:17:36.954Z,5.17
2019-04-20T10:20:12.745Z,12.43
2019-04-20T10:22:33.903Z,4.23
2019-04-20T10:25:02.634Z,3.97
2019-04-20T10:27:30.779Z,4.40
2019-04-20T10:30:03.806Z,3.30
2019-04-20T10:32:34.265Z,3.90
2019-04-20T10:34:56.863Z,3.80
2019-04-20T10:37:29.376Z,3.87
2019-04-20T10:39:58.444Z,2.97
2019-04-20T10:42:26.091Z,6.90
2019-04-20T10:44:57.065Z,3.03
2019-04-20T10:47:23.103Z,4.53
2019-04-20T10:49:51.243Z,7.33
2019-04-20T10:52:20.128Z,2.53
2019-04-20T10:54:56.443Z,5.40
2019-04-20T10:57:23.756Z,4.10
2019-04-20T10:59:52.077Z,3.03
2019-04-20T11:02:21.581Z,6.10
2019-04-20T11:04:50.524Z,6.40
2019-04-20T11:07:18.703Z,2.80
2019-04-20T11:09:47.123Z,8.47
2019-04-20T11:12:16.530Z,7.03
2019-04-20T11:14:45.557Z,2.37
2019-04-20T11:17:12.262Z,2.67
2019-04-20T11:19:41.147Z,3.10
2019-04-20T11:22:10.297Z,2.67
2019-04-20T11:24:38.598Z,3.20
2019-04-20T11:27:07.797Z,4.33
2019-04-20T11:29:36.052Z,2.00
2019-04-20T11:32:05.228Z,1.77
2019-04-20T11:34:36.270Z,4.43
2019-04-20T11:37:01.472Z,3.77
2019-04-20T11:39:30.054Z,3.47
2019-04-20T11:41:59.537Z,2.10
2019-04-20T11:44:30.273Z,1.97
2019-04-20T11:46:56.686Z,2.97
2019-04-20T11:49:25.688Z,2.47
2019-04-20T11:51:52.888Z,22.77
2019-04-20T11:54:22.070Z,7.40
2019-04-20T11:56:51.129Z,3.40
2019-04-20T11:59:18.960Z,5.87
2019-04-20T12:02:00.136Z,3.37
2019-04-20T12:04:40.689Z,2.50
2019-04-20T12:06:56.979Z,3.43
2019-04-20T12:09:24.632Z,2.60
2019-04-20T12:12:04.182Z,3.53
2019-04-20T12:14:22.907Z,9.33
2019-04-20T12:16:50.640Z,3.00
2019-04-20T12:19:18.947Z,3.43
2019-04-20T12:21:47.849Z,3.27
2019-04-20T12:24:16.523Z,4.60
2019-04-20T12:26:44.828Z,9.43
2019-04-20T12:29:14.041Z,11.30
2019-04-20T12:31:44.355Z,5.60
2019-04-20T12:34:10.570Z,6.77
2019-04-20T12:36:39.496Z,5.20
2019-04-20T12:39:09.007Z,4.83
2019-04-20T12:41:46.269Z,9.80
2019-04-20T12:44:06.140Z,8.90
2019-04-20T12:46:34.482Z,4.07
2019-04-20T12:49:02.861Z,11.43
2019-04-20T12:51:38.730Z,6.93
2019-04-20T12:54:06.704Z,10.57
2019-04-20T12:56:34.926Z,4.33
2019-04-20T12:59:03.576Z,7.90
2019-04-20T13:01:33.272Z,5.97
2019-04-20T13:04:02.936Z,5.00
2019-04-20T13:06:30.046Z,5.80
2019-04-20T13:09:00.608Z,5.63
2019-04-20T13:11:45.267Z,5.33
2019-04-20T13:14:12.467Z,6.23
2019-04-20T13:16:40.718Z,9.43
2019-04-20T13:19:09.091Z,5.73
2019-04-20T13:21:38.908Z,9.57
2019-04-20T13:24:07.020Z,3.53
2019-04-20T13:26:35.187Z,8.00
2019-04-20T13:29:04.650Z,8.03
2019-04-20T13:31:32.057Z,9.63
2019-04-20T13:34:01.522Z,6.80
2019-04-20T13:36:30.275Z,15.60
2019-04-20T13:38:59.343Z,6.30
2019-04-20T13:41:27.599Z,9.23
2019-04-20T13:43:57.691Z,6.53
2019-04-20T13:46:23.054Z,6.57
2019-04-20T13:48:51.260Z,7.70
2019-04-20T13:51:20.743Z,9.10
2019-04-20T13:53:48.353Z,6.80
2019-04-20T13:56:19.355Z,7.97
2019-04-20T13:58:58.057Z,7.80
2019-04-20T14:01:30.753Z,10.23
2019-04-20T14:04:12.737Z,8.77
2019-04-20T14:06:39.888Z,7.73
2019-04-20T14:09:09.826Z,9.67
2019-04-20T14:11:37.303Z,6.97
2019-04-20T14:14:08.136Z,7.43
2019-04-20T14:16:34.829Z,10.80
2019-04-20T14:19:03.467Z,15.83
2019-04-20T14:21:32.201Z,12.40
2019-04-20T14:24:01.334Z,8.60
2019-04-20T14:26:29.076Z,9.60
2019-04-20T14:28:58.841Z,7.53
2019-04-20T14:31:26.249Z,8.00
2019-04-20T14:33:55.083Z,9.80
2019-04-20T14:36:24.278Z,7.83
2019-04-20T14:38:51.981Z,7.00
2019-04-20T14:41:20.214Z,7.97
2019-04-20T14:43:48.950Z,12.93
2019-04-20T14:46:17.061Z,10.00
2019-04-20T14:48:46.827Z,12.23
2019-04-20T14:51:13.972Z,11.27
2019-04-20T14:53:43.275Z,10.57
2019-04-20T14:56:11.425Z,11.20
2019-04-20T14:58:45.177Z,10.13
2019-04-20T15:01:18.647Z,8.00
2019-04-20T15:03:49.930Z,7.50
2019-04-20T15:06:15.784Z,6.63
2019-04-20T15:08:44.967Z,7.73
2019-04-20T15:11:12.948Z,5.93
2019-04-20T15:13:42.610Z,10.97
2019-04-20T15:16:10.890Z,7.50
2019-04-20T15:18:42.964Z,7.00
2019-04-20T15:21:13.444Z,7.80
2019-04-20T15:23:41.545Z,8.00
2019-04-20T15:26:10.706Z,6.30
2019-04-20T15:28:38.669Z,7.23
2019-04-20T15:31:07.977Z,5.80
2019-04-20T15:33:37.086Z,7.83
2019-04-20T15:36:06.300Z,11.10
2019-04-20T15:38:33.785Z,6.13
2019-04-20T15:41:02.983Z,6.50
2019-04-20T15:43:31.074Z,3.87
2019-04-20T15:45:59.555Z,6.43
2019-04-20T15:48:28.332Z,5.53
2019-04-20T15:50:58.091Z,5.70
2019-04-20T15:53:25.849Z,5.27
2019-04-20T15:55:53.750Z,5.57
2019-04-20T15:58:22.724Z,6.37
2019-04-20T16:00:51.357Z,6.50
2019-04-20T16:03:23.826Z,9.73
2019-04-20T16:05:56.705Z,9.33
2019-04-20T16:08:42.111Z,5.93
2019-04-20T16:11:11.100Z,8.00
2019-04-20T16:13:43.683Z,9.90
2019-04-20T16:16:07.861Z,4.27
2019-04-20T16:18:35.048Z,9.47
2019-04-20T16:21:07.856Z,5.60
2019-04-20T16:23:36.868Z,8.67
2019-04-20T16:26:23.893Z,8.10
2019-04-20T16:28:53.363Z,8.83
2019-04-20T16:31:20.594Z,8.07
2019-04-20T16:33:48.930Z,6.63
2019-04-20T16:36:18.674Z,4.53
2019-04-20T16:38:45.947Z,13.13
2019-04-20T16:41:14.663Z,13.83
2019-04-20T16:43:44.659Z,7.77
2019-04-20T16:46:11.451Z,5.07
2019-04-20T16:48:40.132Z,6.97
2019-04-20T16:51:09.010Z,5.10
2019-04-20T16:53:39.445Z,8.33
2019-04-20T16:56:06.596Z,6.90
2019-04-20T16:58:35.694Z,5.67
2019-04-20T17:01:03.453Z,9.70
2019-04-20T17:03:46.028Z,6.07
2019-04-20T17:06:02.305Z,4.37
2019-04-20T17:08:29.604Z,9.10
2019-04-20T17:10:58.135Z,5.73
2019-04-20T17:13:36.329Z,5.20
2019-04-20T17:15:55.546Z,5.37
2019-04-20T17:18:24.076Z,7.20
2019-04-20T17:20:53.363Z,8.50
2019-04-20T17:23:21.330Z,4.80
2019-04-20T17:25:50.290Z,6.10
2019-04-20T17:29:26.080Z,11.27
2019-04-20T17:32:01.330Z,11.40
2019-04-20T17:34:44.400Z,7.20
2019-04-20T17:36:57.225Z,4.43
2019-04-20T17:39:36.848Z,7.57
2019-04-20T17:42:07.372Z,11.93
2019-04-20T17:44:36.003Z,9.37
2019-04-20T17:47:04.138Z,5.43
2019-04-20T17:49:36.842Z,5.17
2019-04-20T17:52:14.216Z,4.60
2019-04-20T17:54:22.014Z,5.37
2019-04-20T17:56:49.910Z,7.40
2019-04-20T17:59:18.309Z,6.13
2019-04-20T18:02:06.682Z,31.40
2019-04-20T18:04:54.922Z,8.00
2019-04-20T18:07:16.309Z,6.27
2019-04-20T18:09:44.737Z,8.67
2019-04-20T18:11:56.294Z,5.97
2019-04-20T18:14:37.437Z,6.73
2019-04-20T18:17:10.450Z,5.47
2019-04-20T18:19:29.993Z,7.17
2019-04-20T18:22:01.470Z,9.67
2019-04-20T18:24:56.847Z,8.27
2019-04-20T18:27:15.170Z,8.23
2019-04-20T18:29:47.981Z,5.83
2019-04-20T18:31:59.691Z,9.10
2019-04-20T18:34:34.183Z,13.60
2019-04-20T18:37:07.755Z,10.10
2019-04-20T18:39:37.466Z,4.90
2019-04-20T18:42:12.183Z,7.03
2019-04-20T18:44:46.221Z,7.20
2019-04-20T18:47:18.159Z,4.83
2019-04-20T18:49:38.754Z,13.80
2019-04-20T18:51:53.845Z,4.90
2019-04-20T18:54:28.134Z,9.60
2019-04-20T18:56:52.873Z,9.07
2019-04-20T18:59:23.413Z,5.03
2019-04-20T19:01:48.804Z,7.67
2019-04-20T19:04:17.555Z,5.90
2019-04-20T19:06:45.923Z,7.13
2019-04-20T19:09:16.747Z,5.17
2019-04-20T19:11:46.645Z,7.90
2019-04-20T19:14:23.639Z,6.23
2019-04-20T19:16:56.815Z,5.13
2019-04-20T19:19:33.405Z,8.90
2019-04-20T19:21:54.079Z,15.27
2019-04-20T19:24:25.993Z,9.13
2019-04-20T19:26:54.525Z,9.13
2019-04-20T19:29:26.523Z,10.07
2019-04-20T19:32:07.547Z,16.33
2019-04-20T19:34:35.417Z,5.50
2019-04-20T19:37:00.165Z,8.87
2019-04-20T19:39:26.028Z,6.43
2019-04-20T19:41:51.752Z,6.70
2019-04-20T19:44:23.806Z,9.23
2019-04-20T19:47:03.811Z,10.73
2019-04-20T19:49:19.366Z,13.37
2019-04-20T19:52:10.775Z,14.07
2019-04-20T19:54:27.801Z,11.37
2019-04-20T19:56:48.711Z,7.43
2019-04-20T19:59:11.178Z,5.23
2019-04-20T20:01:29.829Z,9.47
2019-04-20T20:04:02.496Z,9.93
2019-04-20T20:06:33.205Z,7.00
2019-04-20T20:09:00.157Z,4.93
2019-04-20T20:11:29.615Z,7.97
2019-04-20T20:13:55.311Z,7.27
2019-04-20T20:16:30.329Z,6.40
2019-04-20T20:19:01.918Z,7.33
2019-04-20T20:21:27.307Z,12.37
2019-04-20T20:23:47.814Z,8.63
2019-04-20T20:26:23.276Z,12.57
2019-04-20T20:28:51.748Z,7.73
2019-04-20T20:31:25.263Z,12.03
2019-04-20T20:33:56.594Z,10.73
2019-04-20T20:36:15.752Z,7.40
2019-04-20T20:38:43.709Z,10.63
2019-04-20T20:41:15.199Z,9.17
2019-04-20T20:43:49.581Z,8.23
2019-04-20T20:46:18.552Z,10.30
2019-04-20T20:48:48.091Z,9.07
2019-04-20T20:51:13.629Z,7.33
2019-04-20T20:53:41.490Z,7.10
2019-04-20T20:56:06.609Z,11.20
2019-04-20T20:58:36.237Z,12.90
2019-04-20T21:01:03.664Z,10.50
2019-04-20T21:03:33.841Z,8.83
2019-04-20T21:05:51.597Z,7.13
2019-04-20T21:08:19.748Z,9.63
2019-04-20T21:10:49.696Z,7.77
2019-04-20T21:13:17.299Z,17.03
2019-04-20T21:15:52.265Z,8.33
2019-04-20T21:18:33.703Z,10.73
2019-04-20T21:21:00.170Z,14.33
2019-04-20T21:23:22.377Z,8.87
2019-04-20T21:25:48.841Z,8.90
2019-04-20T21:28:13.117Z,11.40
2019-04-20T21:30:44.700Z,11.97
2019-04-20T21:33:10.842Z,10.73
2019-04-20T21:35:42.968Z,9.77
2019-04-20T21:38:09.662Z,12.00
2019-04-20T21:40:41.063Z,10.80
2019-04-20T21:43:07.290Z,15.23
2019-04-20T21:45:36.116Z,18.43
2019-04-20T21:48:08.310Z,10.47
2019-04-20T21:50:42.533Z,10.03
2019-04-20T21:53:04.546Z,10.47
2019-04-20T21:55:26.201Z,9.63
2019-04-20T21:57:58.384Z,15.80
2019-04-20T22:01:34.618Z,11.50
2019-04-20T22:03:56.249Z,14.13
2019-04-20T22:06:24.426Z,7.87
2019-04-20T22:09:01.038Z,15.07
2019-04-20T22:11:27.560Z,10.10
2019-04-20T22:13:57.373Z,12.87
2019-04-20T22:16:31.301Z,13.87
2019-04-20T22:19:09.091Z,15.10
2019-04-20T22:21:29.524Z,10.57
2019-04-20T22:24:03.255Z,11.17
2019-04-20T22:26:30.035Z,15.23
2019-04-20T22:28:47.968Z,8.00
2019-04-20T22:31:15.999Z,10.53
2019-04-20T22:33:45.461Z,10.03
2019-04-20T22:36:14.405Z,10.00
2019-04-20T22:39:15.983Z,10.27
2019-04-20T22:41:53.537Z,13.40
2019-04-20T22:44:21.411Z,14.30
2019-04-20T22:46:47.807Z,12.17
2019-04-20T22:49:33.730Z,10.13
2019-04-20T22:51:55.563Z,14.50
2019-04-20T22:54:31.245Z,11.70
2019-04-20T22:56:56.224Z,13.40
2019-04-20T22:59:13.919Z,10.57
2019-04-20T23:01:46.572Z,12.00
2019-04-20T23:04:08.652Z,12.63
2019-04-20T23:06:40.804Z,16.03
2019-04-20T23:09:11.579Z,11.37
2019-04-20T23:11:37.599Z,11.63
2019-04-20T23:14:06.464Z,11.80
2019-04-20T23:16:39.249Z,17.70
2019-04-20T23:19:02.501Z,8.67
2019-04-20T23:21:32.126Z,15.07
2019-04-20T23:24:03.821Z,9.43
2019-04-20T23:26:35.918Z,10.47
2019-04-20T23:28:59.550Z,9.03
2019-04-20T23:31:27.375Z,11.43
2019-04-20T23:33:54.135Z,10.53
2019-04-20T23:36:29.186Z,13.30
2019-04-20T23:38:54.619Z,11.00
2019-04-20T23:41:21.804Z,11.23
2019-04-20T23:44:02.425Z,11.57
2019-04-20T23:46:35.006Z,12.23
2019-04-20T23:49:15.837Z,12.10
2019-04-20T23:52:00.637Z,13.40
2019-04-20T23:54:12.916Z,11.77
2019-04-20T23:56:33.780Z,11.17
2019-04-20T23:59:02.416Z,9.20
